Sasanqua — 3FFV3 — position and weather

sailwx.info

Track history (hours):
 
Tides and Currents Weather Stations Pressure Air Temp Water Temp Dewpoint Dewpoint Depression Visibility Wind Speed Wind Dir Waves Ship Positions

Sasanqua

Last reported at 2017-Dec-04 10:25 UTC. Time now 2017-Dec-11 11:19 UTC.
Position N 34°40' E 135°13'.

Length 134 m; draft 5.8 m.

Type: Cargo ship. MMSI: 352256000.

Date/timePositionNaut miles runAvg speedWind from/ knotsBaromVisibWave heightAir tempDewpointWater temp
2017-Dec-04 10:25N 34°40' E 135°13'0 0.0
2017-Dec-04 09:58N 34°40' E 135°13'0 0.0
2017-Dec-04 09:28N 34°40' E 135°13'0 0.0
2017-Dec-04 08:58N 34°40' E 135°13'0 0.0
2017-Dec-04 08:28N 34°40' E 135°13'0 0.0
2017-Dec-04 07:58N 34°40' E 135°13'0 0.0
2017-Dec-04 07:28N 34°40' E 135°13'0 0.0
2017-Dec-04 06:58N 34°40' E 135°13'0 0.0
2017-Dec-04 06:28N 34°40' E 135°13'0 0.0
2017-Dec-04 05:58N 34°40' E 135°13'0 0.0
2017-Dec-04 05:28N 34°40' E 135°13'0 0.0
2017-Dec-04 04:58N 34°40' E 135°13'0 0.2
2017-Dec-04 04:30N 34°40' E 135°13'2 3.2
2017-Dec-04 04:00N 34°40' E 135°15'4 8.5
2017-Dec-04 03:30N 34°36' E 135°15'713.6
2017-Dec-04 03:00N 34°35' E 135°06'815.7
2017-Dec-04 02:30N 34°36' E 134°57'815.6
2017-Dec-04 02:00N 34°33' E 134°48'816.1
2017-Dec-04 01:30N 34°30' E 134°39'917.0
2017-Dec-04 01:00N 34°27' E 134°30'916.8
2017-Dec-04 00:29N 34°24' E 134°20'715.5
2017-Dec-04 00:00N 34°25' E 134°11'2612.3
2017-Dec-03 21:55N 34°18' E 133°41'4512.4
2017-Dec-03 18:16N 34°04' E 132°49'415.6
2017-Dec-03 18:00N 34°01' E 132°46'714.2
2017-Dec-03 17:30N 33°56' E 132°40'815.3
2017-Dec-03 16:58N 33°50' E 132°33'715.8
2017-Dec-03 16:30N 33°46' E 132°26'915.6
2017-Dec-03 15:57N 33°43' E 132°16'816.1
2017-Dec-03 15:29N 33°41' E 132°07'817.3
2017-Dec-03 15:01N 33°43' E 131°57'918.0
2017-Dec-03 14:30N 33°45' E 131°47'918.8
2017-Dec-03 14:01N 33°47' E 131°36'918.3
2017-Dec-03 13:30N 33°49' E 131°25'918.0
2017-Dec-03 13:00N 33°51' E 131°15'917.1
2017-Dec-03 12:30N 33°55' E 131°06'713.7
2017-Dec-03 12:01N 33°58' E 130°58'5 9.6
2017-Dec-03 11:31N 33°54' E 130°55'611.1
2017-Dec-03 11:00N 33°59' E 130°50'611.3
2017-Dec-03 10:30N 34°03' E 130°46'815.0
2017-Dec-03 10:00N 34°01' E 130°37'817.0
2017-Dec-03 09:30N 33°57' E 130°28'816.0
2017-Dec-03 09:00N 33°52' E 130°21'816.9
2017-Dec-03 08:30N 33°44' E 130°16'612.2
2017-Dec-03 08:01N 33°39' E 130°19'5 9.3
2017-Dec-03 07:31N 33°37' E 130°24'0 0.1
2017-Dec-03 06:59N 33°37' E 130°24'0 0.0
2017-Dec-03 06:29N 33°37' E 130°24'0 0.0
2017-Dec-03 05:59N 33°37' E 130°24'0 0.0
2017-Dec-03 05:29N 33°37' E 130°24'0 0.0
2017-Dec-03 04:59N 33°37' E 130°24'0 0.1
2017-Dec-03 04:29N 33°37' E 130°24'0 0.1
2017-Dec-03 03:59N 33°37' E 130°24'0 0.0
2017-Dec-03 03:29N 33°37' E 130°24'0 0.0
2017-Dec-03 02:59N 33°37' E 130°24'0 0.0
2017-Dec-03 02:29N 33°37' E 130°24'0 0.1
2017-Dec-03 01:59N 33°37' E 130°24'0 0.0
2017-Dec-03 01:29N 33°37' E 130°24'0 0.4
2017-Dec-03 01:00N 33°37' E 130°24'3 5.1
2017-Dec-03 00:30N 33°38' E 130°21'4 7.6
2017-Dec-03 00:00N 33°39' E 130°17'4 7.4
2017-Dec-02 23:30N 33°42' E 130°15'510.0
2017-Dec-02 23:00N 33°45' E 130°10'0 0.9
2017-Dec-02 22:30N 33°45' E 130°09'0 0.9
2017-Dec-02 22:00N 33°46' E 130°09'1 1.3
2017-Dec-02 21:30N 33°46' E 130°10'1 1.2
2017-Dec-02 21:00N 33°47' E 130°10'0 0.5
2017-Dec-02 20:30N 33°47' E 130°10'712.8
2017-Dec-02 19:59N 33°44' E 130°03'715.2
2017-Dec-02 19:30N 33°42' E 129°55'  
Track history (hours):
 
Tides and Currents Weather Stations Pressure Air Temp Water Temp Dewpoint Dewpoint Depression Visibility Wind Speed Wind Dir Waves Ship Positions

Sasanqua

Last reported at 2017-Dec-04 10:25 UTC. Time now 2017-Dec-11 11:19 UTC.
Position N 34°40' E 135°13'.

Length 134 m; draft 5.8 m.

Type: Cargo ship. MMSI: 352256000.

Date/timePositionNaut miles runAvg speedWind from/ knotsBaromVisibWave heightAir tempDewpointWater temp
2017-Dec-04 10:25N 34°40' E 135°13'0 0.0
2017-Dec-04 09:58N 34°40' E 135°13'0 0.0
2017-Dec-04 09:28N 34°40' E 135°13'0 0.0
2017-Dec-04 08:58N 34°40' E 135°13'0 0.0
2017-Dec-04 08:28N 34°40' E 135°13'0 0.0
2017-Dec-04 07:58N 34°40' E 135°13'0 0.0
2017-Dec-04 07:28N 34°40' E 135°13'0 0.0
2017-Dec-04 06:58N 34°40' E 135°13'0 0.0
2017-Dec-04 06:28N 34°40' E 135°13'0 0.0
2017-Dec-04 05:58N 34°40' E 135°13'0 0.0
2017-Dec-04 05:28N 34°40' E 135°13'0 0.0
2017-Dec-04 04:58N 34°40' E 135°13'0 0.2
2017-Dec-04 04:30N 34°40' E 135°13'2 3.2
2017-Dec-04 04:00N 34°40' E 135°15'4 8.5
2017-Dec-04 03:30N 34°36' E 135°15'713.6
2017-Dec-04 03:00N 34°35' E 135°06'815.7
2017-Dec-04 02:30N 34°36' E 134°57'815.6
2017-Dec-04 02:00N 34°33' E 134°48'816.1
2017-Dec-04 01:30N 34°30' E 134°39'917.0
2017-Dec-04 01:00N 34°27' E 134°30'916.8
2017-Dec-04 00:29N 34°24' E 134°20'715.5
2017-Dec-04 00:00N 34°25' E 134°11'2612.3
2017-Dec-03 21:55N 34°18' E 133°41'4512.4
2017-Dec-03 18:16N 34°04' E 132°49'415.6
2017-Dec-03 18:00N 34°01' E 132°46'714.2
2017-Dec-03 17:30N 33°56' E 132°40'815.3
2017-Dec-03 16:58N 33°50' E 132°33'715.8
2017-Dec-03 16:30N 33°46' E 132°26'915.6
2017-Dec-03 15:57N 33°43' E 132°16'816.1
2017-Dec-03 15:29N 33°41' E 132°07'817.3
2017-Dec-03 15:01N 33°43' E 131°57'918.0
2017-Dec-03 14:30N 33°45' E 131°47'918.8
2017-Dec-03 14:01N 33°47' E 131°36'918.3
2017-Dec-03 13:30N 33°49' E 131°25'918.0
2017-Dec-03 13:00N 33°51' E 131°15'917.1
2017-Dec-03 12:30N 33°55' E 131°06'713.7
2017-Dec-03 12:01N 33°58' E 130°58'5 9.6
2017-Dec-03 11:31N 33°54' E 130°55'611.1
2017-Dec-03 11:00N 33°59' E 130°50'611.3
2017-Dec-03 10:30N 34°03' E 130°46'815.0
2017-Dec-03 10:00N 34°01' E 130°37'817.0
2017-Dec-03 09:30N 33°57' E 130°28'816.0
2017-Dec-03 09:00N 33°52' E 130°21'816.9
2017-Dec-03 08:30N 33°44' E 130°16'612.2
2017-Dec-03 08:01N 33°39' E 130°19'5 9.3
2017-Dec-03 07:31N 33°37' E 130°24'0 0.1
2017-Dec-03 06:59N 33°37' E 130°24'0 0.0
2017-Dec-03 06:29N 33°37' E 130°24'0 0.0
2017-Dec-03 05:59N 33°37' E 130°24'0 0.0
2017-Dec-03 05:29N 33°37' E 130°24'0 0.0
2017-Dec-03 04:59N 33°37' E 130°24'0 0.1
2017-Dec-03 04:29N 33°37' E 130°24'0 0.1
2017-Dec-03 03:59N 33°37' E 130°24'0 0.0
2017-Dec-03 03:29N 33°37' E 130°24'0 0.0
2017-Dec-03 02:59N 33°37' E 130°24'0 0.0
2017-Dec-03 02:29N 33°37' E 130°24'0 0.1
2017-Dec-03 01:59N 33°37' E 130°24'0 0.0
2017-Dec-03 01:29N 33°37' E 130°24'0 0.4
2017-Dec-03 01:00N 33°37' E 130°24'3 5.1
2017-Dec-03 00:30N 33°38' E 130°21'4 7.6
2017-Dec-03 00:00N 33°39' E 130°17'4 7.4
2017-Dec-02 23:30N 33°42' E 130°15'510.0
2017-Dec-02 23:00N 33°45' E 130°10'0 0.9
2017-Dec-02 22:30N 33°45' E 130°09'0 0.9
2017-Dec-02 22:00N 33°46' E 130°09'1 1.3
2017-Dec-02 21:30N 33°46' E 130°10'1 1.2
2017-Dec-02 21:00N 33°47' E 130°10'0 0.5
2017-Dec-02 20:30N 33°47' E 130°10'712.8
2017-Dec-02 19:59N 33°44' E 130°03'715.2
2017-Dec-02 19:30N 33°42' E 129°55'  

Dump ship's entire track history